Time;durP1;ratioP1;P1;durP2;ratioP2;P2;SDS_P1;SDS_P2;PMS_P1;PMS_P2;Temp;Humidity;BMP_temperature;BMP_pressure;BME280_temperature;BME280_humidity;BME280_pressure;Samples;Min_cycle;Max_cycle;Signal;HPM_P1;HPM_P2
2021/01/18 00:03:24;;;;;;;3.30;1.30;;;18.00;61.40;;;;;;10291779;28;20039;-61
2021/01/18 00:08:25;;;;;;;3.50;1.60;;;18.00;61.30;;;;;;10282425;28;20034;-61
2021/01/18 00:13:25;;;;;;;3.13;1.55;;;18.00;61.30;;;;;;10274628;28;20042;-61
2021/01/18 00:18:28;;;;;;;2.40;1.13;;;18.00;61.30;;;;;;10280032;28;20173;-61
2021/01/18 00:23:28;;;;;;;2.35;1.30;;;18.00;61.20;;;;;;10288132;28;20030;-61
2021/01/18 00:28:31;;;;;;;3.65;1.08;;;18.00;61.10;;;;;;10270309;28;20118;-61
2021/01/18 00:33:33;;;;;;;3.10;1.15;;;18.00;61.10;;;;;;10282997;28;20034;-61
2021/01/18 00:38:35;;;;;;;2.30;1.20;;;18.00;61.00;;;;;;10287981;28;20023;-61
2021/01/18 00:43:36;;;;;;;2.38;1.33;;;18.00;61.10;;;;;;10276162;28;20034;-61
2021/01/18 00:48:39;;;;;;;3.38;1.40;;;18.00;61.00;;;;;;10288707;28;20037;-61
2021/01/18 00:53:39;;;;;;;2.60;1.10;;;18.00;61.00;;;;;;10285901;28;20030;-61
2021/01/18 00:58:42;;;;;;;2.25;1.23;;;18.00;60.90;;;;;;10287265;28;20031;-61
2021/01/18 01:03:42;;;;;;;2.15;1.10;;;18.00;60.90;;;;;;10289061;28;20045;-61
2021/01/18 01:08:43;;;;;;;2.35;1.20;;;18.10;60.90;;;;;;10285530;28;20433;-62
2021/01/18 01:13:44;;;;;;;1.95;0.95;;;18.00;60.80;;;;;;10286588;28;20043;-61
2021/01/18 01:18:45;;;;;;;2.28;1.10;;;18.10;60.90;;;;;;10281828;28;20430;-61
2021/01/18 01:23:46;;;;;;;2.20;1.23;;;18.10;60.80;;;;;;10286048;28;20043;-62
2021/01/18 01:28:46;;;;;;;2.08;1.00;;;18.10;60.80;;;;;;10281091;28;20024;-61
2021/01/18 01:33:47;;;;;;;4.05;1.10;;;18.10;60.80;;;;;;10282258;28;20037;-61
2021/01/18 01:38:48;;;;;;;1.58;0.82;;;18.10;60.80;;;;;;10285902;28;20023;-61
2021/01/18 01:43:48;;;;;;;2.05;1.00;;;18.10;60.80;;;;;;10283731;28;20222;-61
2021/01/18 01:48:49;;;;;;;2.55;1.20;;;18.10;60.70;;;;;;10291177;28;20373;-62
2021/01/18 01:53:50;;;;;;;1.55;0.80;;;18.10;60.70;;;;;;10299636;28;20027;-61
2021/01/18 01:58:55;;;;;;;2.80;1.00;;;18.10;60.60;;;;;;10298034;28;20128;-61
2021/01/18 02:03:58;;;;;;;1.83;0.88;;;18.10;60.60;;;;;;10297246;28;20130;-61
2021/01/18 02:08:58;;;;;;;3.53;1.00;;;18.10;60.50;;;;;;10299486;28;20058;-62
2021/01/18 02:14:36;;;;;;;1.92;0.90;;;18.10;60.60;;;;;;10288596;28;20053;-61
2021/01/18 02:19:58;;;;;;;1.95;0.98;;;18.10;60.60;;;;;;10298058;28;20395;-61
2021/01/18 02:25:21;;;;;;;1.65;0.75;;;18.00;60.70;;;;;;10298300;28;20042;-61
2021/01/18 02:31:03;;;;;;;2.47;0.82;;;18.00;60.60;;;;;;10290964;28;20412;-61
2021/01/18 02:36:38;;;;;;;2.65;1.23;;;18.10;60.50;;;;;;10275376;28;20440;-60
2021/01/18 02:42:02;;;;;;;4.43;1.38;;;18.10;60.40;;;;;;10279183;28;20039;-61
2021/01/18 02:47:04;;;;;;;1.75;0.98;;;18.10;60.40;;;;;;10290043;28;20033;-61
2021/01/18 02:52:12;;;;;;;1.30;0.80;;;18.10;60.40;;;;;;10294344;28;20499;-61
2021/01/18 02:57:15;;;;;;;2.28;1.10;;;18.10;60.40;;;;;;10295063;28;20487;-61
2021/01/18 03:02:23;;;;;;;2.60;1.10;;;18.10;60.40;;;;;;10295764;28;20383;-61
2021/01/18 03:07:29;;;;;;;0.95;0.63;;;18.10;60.40;;;;;;10297222;28;20510;-61
2021/01/18 03:12:40;;;;;;;1.73;0.70;;;18.10;60.40;;;;;;10283676;28;20035;-62
2021/01/18 03:17:43;;;;;;;1.52;0.82;;;18.10;60.40;;;;;;10296200;28;20023;-61
2021/01/18 03:22:44;;;;;;;1.10;0.73;;;18.10;60.30;;;;;;10295147;28;20066;-61
2021/01/18 03:27:53;;;;;;;1.83;1.00;;;18.10;60.30;;;;;;10295472;28;20518;-61
2021/01/18 03:32:55;;;;;;;1.45;0.70;;;18.10;60.30;;;;;;10291024;28;20026;-61
2021/01/18 03:37:57;;;;;;;1.55;0.75;;;18.10;60.30;;;;;;10292042;28;20114;-61
2021/01/18 03:43:01;;;;;;;2.10;1.05;;;18.10;60.30;;;;;;10292623;28;20078;-61
2021/01/18 03:48:05;;;;;;;1.90;0.93;;;18.10;60.30;;;;;;10288069;28;20035;-61
2021/01/18 03:53:07;;;;;;;1.10;0.70;;;18.10;60.30;;;;;;10294841;28;20027;-61
2021/01/18 03:58:08;;;;;;;1.73;0.85;;;18.10;60.30;;;;;;10295448;28;20399;-61
2021/01/18 04:03:08;;;;;;;1.52;0.88;;;18.10;60.20;;;;;;10293777;28;20054;-61
2021/01/18 04:08:09;;;;;;;1.08;0.60;;;18.10;60.30;;;;;;10294949;28;20161;-60
2021/01/18 04:13:10;;;;;;;1.02;0.50;;;18.00;60.20;;;;;;10293848;28;20092;-61
2021/01/18 04:18:11;;;;;;;1.42;0.77;;;18.00;60.20;;;;;;10294855;28;20027;-61
2021/01/18 04:23:11;;;;;;;2.25;0.95;;;18.00;60.10;;;;;;10288777;28;20588;-61
2021/01/18 04:28:12;;;;;;;1.88;0.70;;;18.00;60.10;;;;;;10288366;28;20093;-61
2021/01/18 04:33:13;;;;;;;2.88;0.93;;;18.00;60.10;;;;;;10286375;28;20035;-61
2021/01/18 04:38:13;;;;;;;1.27;0.77;;;18.10;60.20;;;;;;10289922;28;20165;-60
2021/01/18 04:43:15;;;;;;;1.45;0.68;;;18.10;60.10;;;;;;10286106;28;20464;-61
2021/01/18 04:48:16;;;;;;;1.20;0.88;;;18.10;60.10;;;;;;10291161;28;20058;-60
2021/01/18 04:53:17;;;;;;;2.13;0.80;;;18.00;60.10;;;;;;10289665;28;20439;-61
2021/01/18 04:58:19;;;;;;;2.22;0.60;;;18.00;60.00;;;;;;10293112;28;20396;-60
2021/01/18 05:03:24;;;;;;;0.93;0.60;;;18.10;60.10;;;;;;10279858;28;20034;-61
2021/01/18 05:08:53;;;;;;;1.98;1.00;;;18.10;60.00;;;;;;10278662;28;20166;-61
2021/01/18 05:14:01;;;;;;;1.17;0.63;;;18.10;60.00;;;;;;10283227;28;20098;-61
2021/01/18 05:19:11;;;;;;;1.77;0.70;;;18.10;60.00;;;;;;10290769;28;20035;-61
2021/01/18 05:24:13;;;;;;;1.85;1.10;;;18.10;60.00;;;;;;10291945;28;20067;-61
2021/01/18 05:29:13;;;;;;;0.85;0.50;;;18.10;60.00;;;;;;10290036;28;20086;-61
2021/01/18 05:34:15;;;;;;;2.25;0.73;;;18.10;60.00;;;;;;10287175;28;20114;-61
2021/01/18 05:39:32;;;;;;;2.25;0.73;;;18.10;60.00;;;;;;10284721;28;20479;-61
2021/01/18 05:44:38;;;;;;;0.98;0.60;;;18.10;59.90;;;;;;10286730;28;20041;-61
2021/01/18 05:49:41;;;;;;;1.85;0.80;;;18.10;60.00;;;;;;10284864;28;20035;-61
2021/01/18 05:54:42;;;;;;;1.48;0.88;;;18.10;59.90;;;;;;10289024;28;20549;-62
2021/01/18 05:59:44;;;;;;;1.92;0.73;;;18.00;59.90;;;;;;10291799;28;20039;-61
2021/01/18 06:04:45;;;;;;;1.02;0.50;;;18.10;59.90;;;;;;10289874;28;20368;-61
2021/01/18 06:09:48;;;;;;;1.50;0.50;;;18.10;59.90;;;;;;10290757;28;20046;-61
2021/01/18 06:15:22;;;;;;;1.63;0.60;;;18.00;59.90;;;;;;10290768;28;20388;-61
2021/01/18 06:20:27;;;;;;;1.70;0.70;;;18.10;59.70;;;;;;10265116;28;20707;-60
2021/01/18 06:25:39;;;;;;;1.73;0.60;;;18.00;59.90;;;;;;10277748;28;20043;-61
2021/01/18 06:30:39;;;;;;;2.67;1.02;;;18.10;60.30;;;;;;10286050;28;20110;-61
2021/01/18 06:35:40;;;;;;;8.13;1.00;;;18.00;61.10;;;;;;10283521;28;20027;-63
2021/01/18 06:40:41;;;;;;;3.83;1.10;;;18.10;61.60;;;;;;10288475;28;20613;-59
2021/01/18 06:45:42;;;;;;;5.07;0.93;;;18.10;61.90;;;;;;10274163;28;20365;-61
2021/01/18 06:50:42;;;;;;;5.07;1.50;;;18.10;62.10;;;;;;10284312;28;20027;-62
2021/01/18 06:56:23;;;;;;;8.30;1.00;;;18.10;62.00;;;;;;10290709;28;20050;-64
2021/01/18 07:01:35;;;;;;;4.22;1.60;;;18.10;62.00;;;;;;10290839;28;20058;-68
2021/01/18 07:06:41;;;;;;;8.60;1.27;;;18.00;61.70;;;;;;10292744;28;20042;-65
2021/01/18 07:11:42;;;;;;;5.68;1.23;;;18.00;61.80;;;;;;10286848;28;20081;-64
2021/01/18 07:16:49;;;;;;;5.40;0.90;;;18.00;62.00;;;;;;10278879;28;20447;-59
2021/01/18 07:22:43;;;;;;;10.45;1.63;;;18.10;62.10;;;;;;10284272;28;20030;-63
2021/01/18 07:27:49;;;;;;;9.82;1.92;;;18.10;61.40;;;;;;10254283;28;20042;-65
2021/01/18 07:32:50;;;;;;;9.38;1.77;;;18.10;62.10;;;;;;10276966;28;20030;-62
2021/01/18 07:38:34;;;;;;;7.82;1.98;;;18.10;61.70;;;;;;10283705;28;20023;-63
2021/01/18 07:43:46;;;;;;;12.45;2.17;;;18.10;61.70;;;;;;10270824;28;20031;-64
2021/01/18 07:48:46;;;;;;;10.73;2.03;;;18.00;62.10;;;;;;10281302;28;20034;-64
2021/01/18 07:53:48;;;;;;;9.73;2.13;;;18.00;62.30;;;;;;10288966;28;20364;-66
2021/01/18 07:59:00;;;;;;;14.93;2.75;;;18.00;62.30;;;;;;10285345;28;20057;-66
2021/01/18 08:04:16;;;;;;;16.98;3.28;;;17.90;63.00;;;;;;10281806;28;20037;-65
2021/01/18 08:09:27;;;;;;;17.77;3.15;;;17.90;62.60;;;;;;10286039;28;20391;-64
2021/01/18 08:14:28;;;;;;;19.80;3.03;;;17.80;62.80;;;;;;10284534;28;20023;-67
2021/01/18 08:19:30;;;;;;;21.48;3.22;;;17.80;63.20;;;;;;10279527;28;20042;-62
2021/01/18 08:24:31;;;;;;;16.67;2.50;;;17.80;63.40;;;;;;10284238;28;20018;-65
2021/01/18 08:29:50;;;;;;;11.27;2.63;;;17.80;63.50;;;;;;10288394;28;20034;-65
2021/01/18 08:34:56;;;;;;;11.87;3.10;;;17.90;63.60;;;;;;10293202;28;20503;-66
2021/01/18 08:40:13;;;;;;;25.95;3.20;;;17.80;63.70;;;;;;10285565;28;20036;-64
2021/01/18 08:45:53;;;;;;;14.60;2.70;;;17.90;63.70;;;;;;10291455;28;20045;-64
2021/01/18 08:50:57;;;;;;;18.63;2.83;;;17.90;63.50;;;;;;10289543;28;20042;-64
2021/01/18 08:56:04;;;;;;;11.32;2.50;;;17.90;64.30;;;;;;10291635;28;20294;-65
2021/01/18 09:01:31;;;;;;;13.20;2.85;;;18.00;64.80;;;;;;10280964;28;20043;-63
2021/01/18 09:06:32;;;;;;;23.48;3.75;;;17.90;64.90;;;;;;10275922;28;20034;-64
2021/01/18 09:11:33;;;;;;;11.30;2.58;;;17.90;65.10;;;;;;10279056;28;20026;-63
2021/01/18 09:16:39;;;;;;;14.57;2.70;;;17.90;65.10;;;;;;10279543;28;20035;-65
2021/01/18 09:21:41;;;;;;;14.73;2.88;;;17.90;65.40;;;;;;10279204;28;20392;-63
2021/01/18 09:26:41;;;;;;;20.80;3.58;;;17.90;65.60;;;;;;10275212;28;20039;-65
2021/01/18 09:31:42;;;;;;;13.35;2.92;;;17.80;65.70;;;;;;10271390;28;20027;-63
2021/01/18 09:36:43;;;;;;;9.35;3.25;;;17.80;65.90;;;;;;10275897;28;20038;-65
2021/01/18 09:41:44;;;;;;;16.33;3.35;;;17.80;66.00;;;;;;10281235;28;20043;-60
2021/01/18 09:46:46;;;;;;;13.90;2.97;;;17.80;66.00;;;;;;10265052;28;20031;-62
2021/01/18 09:51:47;;;;;;;11.20;2.88;;;17.70;66.20;;;;;;10285596;28;20427;-66
2021/01/18 09:56:54;;;;;;;16.45;2.70;;;17.70;66.40;;;;;;10285106;28;20035;-67
2021/01/18 10:01:58;;;;;;;9.10;2.40;;;17.70;66.50;;;;;;10265223;28;20085;-63
2021/01/18 10:07:03;;;;;;;15.23;3.55;;;17.70;66.50;;;;;;10290574;28;20034;-64
2021/01/18 10:12:06;;;;;;;13.32;2.65;;;17.70;66.60;;;;;;10276829;28;20027;-67
2021/01/18 10:17:09;;;;;;;17.92;2.92;;;17.70;66.40;;;;;;10284204;28;20038;-64
2021/01/18 10:22:19;;;;;;;13.52;2.78;;;17.70;66.60;;;;;;10279443;28;20027;-63
2021/01/18 10:27:28;;;;;;;11.50;2.63;;;17.70;67.00;;;;;;10290652;28;20039;-64
2021/01/18 10:32:43;;;;;;;12.13;2.40;;;17.80;66.10;;;;;;10294274;28;20039;-65
2021/01/18 10:37:44;;;;;;;9.20;2.20;;;17.80;66.00;;;;;;10293545;28;20480;-63
2021/01/18 10:42:53;;;;;;;9.43;2.15;;;17.70;66.20;;;;;;10291677;28;20114;-61
2021/01/18 10:47:59;;;;;;;9.93;2.05;;;17.70;66.20;;;;;;10308663;28;20031;-64
2021/01/18 10:53:09;;;;;;;8.13;2.22;;;17.70;66.40;;;;;;10284746;28;20067;-65
2021/01/18 10:58:10;;;;;;;11.90;3.28;;;17.70;66.50;;;;;;10293857;28;20022;-67
2021/01/18 11:03:11;;;;;;;13.50;2.53;;;17.70;66.60;;;;;;10294124;28;20054;-61
2021/01/18 11:08:11;;;;;;;13.00;3.08;;;17.70;67.00;;;;;;10295759;28;20053;-65
2021/01/18 11:13:17;;;;;;;15.95;3.10;;;17.60;66.90;;;;;;10296565;28;20076;-66
2021/01/18 11:18:22;;;;;;;17.75;3.60;;;17.60;67.00;;;;;;10288444;28;20092;-65
2021/01/18 11:23:22;;;;;;;17.25;2.55;;;17.60;66.80;;;;;;10293172;28;20046;-65
2021/01/18 11:28:25;;;;;;;17.25;3.70;;;17.60;67.40;;;;;;10294697;28;20034;-63
2021/01/18 11:33:26;;;;;;;18.88;2.50;;;17.60;67.90;;;;;;10287469;28;20122;-61
2021/01/18 11:38:27;;;;;;;11.77;2.58;;;17.70;67.80;;;;;;10292342;28;20554;-60
2021/01/18 11:43:30;;;;;;;9.27;2.53;;;17.70;68.80;;;;;;10291668;28;20038;-62
2021/01/18 11:48:31;;;;;;;16.35;3.63;;;17.80;69.10;;;;;;10269579;28;20097;-67
2021/01/18 11:53:32;;;;;;;12.20;3.47;;;17.70;69.10;;;;;;10295393;28;20165;-61
2021/01/18 11:58:33;;;;;;;6.95;2.00;;;17.80;69.50;;;;;;10282121;28;20122;-63
2021/01/18 12:03:33;;;;;;;10.73;2.30;;;17.80;69.60;;;;;;10291911;28;20464;-65
2021/01/18 12:08:34;;;;;;;13.13;2.53;;;17.70;69.20;;;;;;10285259;28;20086;-64
2021/01/18 12:13:35;;;;;;;11.40;2.45;;;17.70;68.60;;;;;;10292597;28;20027;-63
2021/01/18 12:18:35;;;;;;;19.25;2.75;;;17.70;68.20;;;;;;10268243;28;20474;-64
2021/01/18 12:23:36;;;;;;;15.88;3.83;;;17.70;68.10;;;;;;10274391;28;20035;-64
2021/01/18 12:28:37;;;;;;;11.88;3.10;;;17.70;68.10;;;;;;10281564;28;20101;-62
2021/01/18 12:33:37;;;;;;;9.43;2.40;;;17.60;68.10;;;;;;10276040;28;20053;-60
2021/01/18 12:38:40;;;;;;;15.02;2.78;;;17.60;67.90;;;;;;10283073;28;20054;-64
2021/01/18 12:43:40;;;;;;;14.98;3.08;;;17.60;67.70;;;;;;10304287;28;20031;-63
2021/01/18 12:48:41;;;;;;;13.98;3.40;;;17.70;67.80;;;;;;10281714;28;20115;-64
2021/01/18 12:53:43;;;;;;;9.27;3.28;;;17.70;68.80;;;;;;10281395;28;20114;-63
2021/01/18 12:58:43;;;;;;;10.63;2.92;;;17.70;68.90;;;;;;10279567;28;20043;-65
2021/01/18 13:03:45;;;;;;;11.32;3.22;;;17.70;69.10;;;;;;10277606;28;20042;-66
2021/01/18 13:08:46;;;;;;;7.07;2.67;;;17.70;69.00;;;;;;10265448;28;20027;-65
2021/01/18 13:13:47;;;;;;;11.90;2.45;;;17.70;68.50;;;;;;10269129;28;20057;-62
2021/01/18 13:18:48;;;;;;;11.93;2.53;;;17.70;69.10;;;;;;10270149;28;20023;-64
2021/01/18 13:23:49;;;;;;;10.07;2.92;;;17.60;69.00;;;;;;10276760;28;20109;-66
2021/01/18 13:28:52;;;;;;;11.13;2.20;;;17.70;68.70;;;;;;10276865;28;20023;-64
2021/01/18 13:33:54;;;;;;;7.13;1.83;;;17.70;68.70;;;;;;10280669;28;20377;-63
2021/01/18 13:38:55;;;;;;;7.75;2.88;;;17.70;68.70;;;;;;10268130;28;20031;-62
2021/01/18 13:43:56;;;;;;;8.73;2.53;;;17.70;68.40;;;;;;10271168;28;20158;-64
2021/01/18 13:48:58;;;;;;;9.43;2.05;;;17.70;68.50;;;;;;10277691;28;20034;-63
2021/01/18 13:53:59;;;;;;;12.25;2.60;;;17.70;68.50;;;;;;10286208;28;20041;-62
2021/01/18 13:59:00;;;;;;;11.40;2.67;;;17.70;68.50;;;;;;10281675;28;20039;-63
2021/01/18 14:04:01;;;;;;;9.05;2.42;;;17.70;68.40;;;;;;10290630;28;20042;-63
2021/01/18 14:09:05;;;;;;;8.88;2.10;;;17.70;67.70;;;;;;10291082;28;20057;-63
2021/01/18 14:14:09;;;;;;;10.48;2.65;;;17.70;67.40;;;;;;10289729;28;20023;-64
2021/01/18 14:19:09;;;;;;;9.65;2.70;;;17.70;67.30;;;;;;10291325;28;20042;-65
2021/01/18 14:24:11;;;;;;;10.55;2.40;;;17.70;67.20;;;;;;10290914;28;20120;-63
2021/01/18 14:29:11;;;;;;;6.35;2.10;;;17.70;67.20;;;;;;10290316;28;20061;-63
2021/01/18 14:34:13;;;;;;;22.25;2.63;;;17.70;67.10;;;;;;10288503;28;20449;-66
2021/01/18 14:39:14;;;;;;;15.65;3.20;;;17.70;67.80;;;;;;10273228;28;20110;-62
2021/01/18 14:44:15;;;;;;;7.82;2.20;;;17.70;67.40;;;;;;10283592;28;20050;-59
2021/01/18 14:49:16;;;;;;;14.25;3.17;;;17.70;66.70;;;;;;10277469;28;20442;-64
2021/01/18 14:54:16;;;;;;;12.23;2.33;;;17.70;66.60;;;;;;10297569;28;20041;-64
2021/01/18 14:59:17;;;;;;;11.80;2.42;;;17.70;66.50;;;;;;10291078;28;20118;-65
2021/01/18 15:04:17;;;;;;;8.57;2.95;;;17.70;66.40;;;;;;10296995;28;20047;-63
2021/01/18 15:09:18;;;;;;;6.22;2.35;;;17.60;66.30;;;;;;10296053;28;20045;-64
2021/01/18 15:14:19;;;;;;;9.30;1.95;;;17.60;66.20;;;;;;10296901;28;20031;-65
2021/01/18 15:19:20;;;;;;;6.95;1.77;;;17.70;66.10;;;;;;10291410;28;20101;-64
2021/01/18 15:24:20;;;;;;;6.15;2.20;;;17.70;66.00;;;;;;10296399;28;20454;-64
2021/01/18 15:29:21;;;;;;;3.92;1.63;;;17.70;65.90;;;;;;10303028;28;20045;-63
2021/01/18 15:34:25;;;;;;;4.30;1.70;;;17.70;65.80;;;;;;10292407;28;20488;-60
2021/01/18 15:39:26;;;;;;;8.35;2.47;;;17.60;65.50;;;;;;10296332;28;20113;-59
2021/01/18 15:44:27;;;;;;;9.50;2.35;;;17.70;65.70;;;;;;10284204;28;20464;-60
2021/01/18 15:49:28;;;;;;;11.23;2.00;;;17.70;67.60;;;;;;10292661;28;20118;-59
2021/01/18 15:54:28;;;;;;;12.77;2.03;;;17.70;68.00;;;;;;10290481;28;20125;-59
2021/01/18 15:59:29;;;;;;;7.38;2.67;;;17.70;68.30;;;;;;10287827;28;20506;-59
2021/01/18 16:04:30;;;;;;;6.20;1.63;;;17.70;68.50;;;;;;10293507;28;20070;-59
2021/01/18 16:09:30;;;;;;;7.00;1.58;;;17.70;68.80;;;;;;10295239;28;20041;-58
2021/01/18 16:14:31;;;;;;;5.05;2.08;;;17.70;68.90;;;;;;10280293;28;20027;-58
2021/01/18 16:19:32;;;;;;;10.27;2.38;;;17.70;69.30;;;;;;10294375;28;20015;-58
2021/01/18 16:24:32;;;;;;;5.50;2.53;;;17.70;69.60;;;;;;10294166;28;20113;-61
2021/01/18 16:29:34;;;;;;;7.95;1.80;;;17.70;69.50;;;;;;10290655;28;20054;-60
2021/01/18 16:34:37;;;;;;;12.00;2.42;;;17.70;69.20;;;;;;10280123;28;20113;-58
2021/01/18 16:39:38;;;;;;;6.47;1.80;;;17.70;70.30;;;;;;10275232;28;20357;-61
2021/01/18 16:44:41;;;;;;;10.65;2.40;;;17.80;69.90;;;;;;10279107;28;20360;-60
2021/01/18 16:49:41;;;;;;;7.18;2.10;;;17.80;70.10;;;;;;10289086;28;20464;-58
2021/01/18 16:54:43;;;;;;;11.27;2.25;;;17.80;68.70;;;;;;10284973;28;20122;-58
2021/01/18 16:59:43;;;;;;;10.40;2.33;;;17.70;67.40;;;;;;10291691;28;20057;-59
2021/01/18 17:04:44;;;;;;;10.52;2.08;;;17.70;66.80;;;;;;10287051;28;20049;-60
2021/01/18 17:09:45;;;;;;;11.40;3.70;;;17.70;65.80;;;;;;10286327;28;20034;-59
2021/01/18 17:14:46;;;;;;;12.30;3.22;;;17.70;68.60;;;;;;10291320;28;20062;-59
2021/01/18 17:19:47;;;;;;;14.93;3.72;;;17.80;70.20;;;;;;10284866;28;20448;-61
2021/01/18 17:24:47;;;;;;;6.75;2.33;;;17.90;69.90;;;;;;10292107;28;20041;-62
2021/01/18 17:29:49;;;;;;;7.88;2.13;;;17.80;69.60;;;;;;10288047;28;20127;-59
2021/01/18 17:34:49;;;;;;;5.93;2.35;;;17.80;69.50;;;;;;10292139;28;20375;-60
2021/01/18 17:39:50;;;;;;;10.80;2.38;;;17.80;69.60;;;;;;10280822;28;20029;-59
2021/01/18 17:44:51;;;;;;;6.28;2.13;;;17.80;69.30;;;;;;10291898;28;20058;-59
2021/01/18 17:49:52;;;;;;;7.90;1.90;;;17.90;69.30;;;;;;10273957;28;20027;-58
2021/01/18 17:54:52;;;;;;;7.15;1.98;;;17.90;68.90;;;;;;10281315;28;20039;-57
2021/01/18 17:59:53;;;;;;;6.78;1.80;;;17.80;68.00;;;;;;10286873;28;20121;-58
2021/01/18 18:04:54;;;;;;;7.55;1.73;;;17.80;67.70;;;;;;10284449;28;20125;-59
2021/01/18 18:09:54;;;;;;;6.07;1.83;;;17.80;67.60;;;;;;10268958;28;20118;-58
2021/01/18 18:14:55;;;;;;;8.77;2.55;;;17.70;67.60;;;;;;10270262;28;20067;-58
2021/01/18 18:19:56;;;;;;;7.32;1.60;;;17.70;68.00;;;;;;10273031;28;20027;-59
2021/01/18 18:24:58;;;;;;;6.30;2.22;;;17.70;67.30;;;;;;10280808;28;20027;-60
2021/01/18 18:29:59;;;;;;;6.95;2.13;;;17.80;67.30;;;;;;10284145;28;20085;-59
2021/01/18 18:34:59;;;;;;;7.90;2.47;;;17.80;67.20;;;;;;10293005;28;20123;-59
2021/01/18 18:40:00;;;;;;;7.60;1.83;;;17.80;67.10;;;;;;10295943;28;20077;-59
2021/01/18 18:45:03;;;;;;;8.15;1.98;;;17.70;67.00;;;;;;10287657;28;20031;-59
2021/01/18 18:50:04;;;;;;;6.38;2.08;;;17.70;66.80;;;;;;10293363;28;20022;-59
2021/01/18 18:55:06;;;;;;;4.15;1.67;;;17.80;66.80;;;;;;10293883;28;20035;-58
2021/01/18 19:00:10;;;;;;;8.13;1.75;;;17.70;66.70;;;;;;10289199;28;20193;-57
2021/01/18 19:05:13;;;;;;;5.38;1.77;;;17.80;66.80;;;;;;10293536;28;20034;-58
2021/01/18 19:10:13;;;;;;;5.60;1.80;;;17.80;66.80;;;;;;10285481;28;20035;-58
2021/01/18 19:15:14;;;;;;;11.43;1.83;;;17.80;66.70;;;;;;10281649;28;20476;-57
2021/01/18 19:20:16;;;;;;;4.63;1.77;;;17.80;66.60;;;;;;10285288;28;20095;-58
2021/01/18 19:25:17;;;;;;;4.32;1.63;;;17.80;66.50;;;;;;10292129;28;20074;-58
2021/01/18 19:30:18;;;;;;;2.88;1.63;;;17.90;66.40;;;;;;10284324;28;20069;-57
2021/01/18 19:35:19;;;;;;;9.57;2.15;;;17.90;66.40;;;;;;10285862;28;20042;-58
2021/01/18 19:40:19;;;;;;;3.15;1.52;;;17.90;66.30;;;;;;10280611;28;20422;-58
2021/01/18 19:45:20;;;;;;;3.30;1.10;;;17.80;66.30;;;;;;10289601;28;20058;-58
2021/01/18 19:50:21;;;;;;;2.88;1.23;;;17.80;66.30;;;;;;10288264;28;20054;-57
2021/01/18 19:55:22;;;;;;;4.20;1.85;;;17.80;66.30;;;;;;10295850;28;20027;-58
2021/01/18 20:00:23;;;;;;;5.72;1.50;;;17.80;66.30;;;;;;10295518;28;20135;-57
2021/01/18 20:05:24;;;;;;;5.20;1.50;;;17.80;66.20;;;;;;10294704;28;20039;-57
2021/01/18 20:10:25;;;;;;;3.10;1.63;;;17.80;66.30;;;;;;10279424;28;20074;-56
2021/01/18 20:15:25;;;;;;;3.55;1.23;;;17.90;66.30;;;;;;10288610;28;20122;-56
2021/01/18 20:20:26;;;;;;;4.32;1.77;;;17.90;66.20;;;;;;10285038;28;20031;-57
2021/01/18 20:25:27;;;;;;;1.88;1.10;;;17.90;65.80;;;;;;10268257;28;20035;-57
2021/01/18 20:30:28;;;;;;;4.78;1.30;;;17.90;65.90;;;;;;10277057;28;20034;-57
2021/01/18 20:35:29;;;;;;;3.47;1.35;;;17.90;65.80;;;;;;10290072;28;20034;-57
2021/01/18 20:40:30;;;;;;;3.90;1.42;;;18.00;65.70;;;;;;10275904;28;20074;-56
2021/01/18 20:45:31;;;;;;;1.63;1.10;;;17.90;65.60;;;;;;10286415;28;20027;-57
2021/01/18 20:50:32;;;;;;;5.18;1.90;;;17.90;65.70;;;;;;10291963;28;20152;-57
2021/01/18 20:55:33;;;;;;;4.40;1.23;;;17.90;65.60;;;;;;10293392;28;20447;-57
2021/01/18 21:00:34;;;;;;;2.60;1.08;;;17.90;65.60;;;;;;10293170;28;20126;-57
2021/01/18 21:05:34;;;;;;;3.55;1.23;;;17.90;65.50;;;;;;10289951;28;20038;-56
2021/01/18 21:10:35;;;;;;;3.17;1.30;;;17.90;65.40;;;;;;10291837;28;20035;-56
2021/01/18 21:15:36;;;;;;;2.97;1.40;;;17.90;65.40;;;;;;10292741;28;20466;-57
2021/01/18 21:20:37;;;;;;;5.57;1.27;;;18.00;65.40;;;;;;10292191;28;20019;-57
2021/01/18 21:25:37;;;;;;;1.55;1.00;;;18.00;65.30;;;;;;10292851;28;20037;-56
2021/01/18 21:30:38;;;;;;;2.55;1.55;;;18.00;65.30;;;;;;10284986;28;20118;-57
2021/01/18 21:35:39;;;;;;;2.28;1.30;;;18.10;65.30;;;;;;10279295;28;20027;-56
2021/01/18 21:40:40;;;;;;;2.08;1.05;;;18.00;65.40;;;;;;10292331;28;20023;-57
2021/01/18 21:45:41;;;;;;;2.72;0.93;;;18.00;65.50;;;;;;10292259;28;20039;-57
2021/01/18 21:50:42;;;;;;;1.95;1.35;;;17.90;65.40;;;;;;10287389;28;20063;-57
2021/01/18 21:55:42;;;;;;;2.38;1.40;;;17.90;65.40;;;;;;10283017;28;20047;-57
2021/01/18 22:00:43;;;;;;;1.77;1.10;;;18.00;65.30;;;;;;10294651;28;20146;-56
2021/01/18 22:05:49;;;;;;;2.42;1.63;;;17.90;65.30;;;;;;10299898;28;20515;-57
2021/01/18 22:10:50;;;;;;;1.70;1.00;;;18.00;65.20;;;;;;10300076;28;20019;-57
2021/01/18 22:15:51;;;;;;;2.58;1.30;;;17.90;65.10;;;;;;10294700;28;20121;-56
2021/01/18 22:20:52;;;;;;;2.03;0.98;;;17.90;65.10;;;;;;10293694;28;20031;-56
2021/01/18 22:25:53;;;;;;;3.78;1.35;;;17.90;65.00;;;;;;10299415;28;20054;-57
2021/01/18 22:30:54;;;;;;;1.73;0.90;;;18.00;65.00;;;;;;10296272;28;20033;-57
2021/01/18 22:35:54;;;;;;;1.38;1.00;;;18.00;64.70;;;;;;10298790;28;20124;-56
2021/01/18 22:40:55;;;;;;;1.60;0.80;;;18.10;64.60;;;;;;10298673;28;20480;-56
2021/01/18 22:45:56;;;;;;;2.00;1.00;;;18.10;64.60;;;;;;10292976;28;20402;-56
2021/01/18 22:50:59;;;;;;;1.70;1.10;;;18.00;64.70;;;;;;10294979;28;20073;-57
2021/01/18 22:56:00;;;;;;;2.15;1.30;;;18.00;64.60;;;;;;10297969;28;20103;-57
2021/01/18 23:01:00;;;;;;;1.48;1.00;;;18.00;64.60;;;;;;10292769;28;20554;-57
2021/01/18 23:06:01;;;;;;;1.08;0.70;;;18.00;64.50;;;;;;10297932;28;20031;-57
2021/01/18 23:11:02;;;;;;;2.88;1.10;;;18.00;64.50;;;;;;10295526;28;20031;-57
2021/01/18 23:16:13;;;;;;;1.30;0.90;;;18.00;64.50;;;;;;10296406;28;20069;-57
2021/01/18 23:21:14;;;;;;;2.15;1.23;;;18.00;64.40;;;;;;10295620;28;20031;-56
2021/01/18 23:26:16;;;;;;;3.47;1.10;;;18.00;64.40;;;;;;10297018;28;20026;-57
2021/01/18 23:31:17;;;;;;;2.20;1.20;;;18.00;64.30;;;;;;10293469;28;20039;-56
2021/01/18 23:36:17;;;;;;;2.90;1.10;;;18.00;64.30;;;;;;10288376;28;20472;-56
2021/01/18 23:41:18;;;;;;;3.35;1.50;;;18.00;64.20;;;;;;10283504;28;20546;-56
2021/01/18 23:46:19;;;;;;;3.25;1.83;;;18.00;64.10;;;;;;10291943;28;20034;-56
2021/01/18 23:51:19;;;;;;;2.83;1.48;;;18.00;64.00;;;;;;10282411;28;20035;-56
2021/01/18 23:56:20;;;;;;;2.28;1.40;;;18.00;64.00;;;;;;10295582;28;20472;-56
